Time;durP1;ratioP1;P1;durP2;ratioP2;P2;SDS_P1;SDS_P2;PMS_P1;PMS_P2;Temp;Humidity;BMP_temperature;BMP_pressure;BME280_temperature;BME280_humidity;BME280_pressure;Samples;Min_cycle;Max_cycle;Signal;HPM_P1;HPM_P2
2021/07/22 15:41:56;;;;;;;14.10;6.95;;;34.70;21.00;;;;;;20818545;27;76441;-74
2021/07/22 15:51:58;;;;;;;11.18;6.03;;;34.50;21.60;;;;;;20711309;28;80297;-68
2021/07/22 16:02:04;;;;;;;18.92;8.05;;;34.40;22.00;;;;;;20689863;28;81755;-70
2021/07/22 16:12:06;;;;;;;18.00;7.10;;;34.40;21.60;;;;;;20764892;28;80642;-69
2021/07/22 16:22:08;;;;;;;11.07;6.57;;;34.40;21.90;;;;;;20768989;28;81525;-69
2021/07/22 16:32:10;;;;;;;16.60;6.40;;;34.40;21.60;;;;;;20749120;28;80673;-71
2021/07/22 16:42:13;;;;;;;13.40;6.90;;;34.40;21.70;;;;;;20788067;28;81604;-71
2021/07/22 16:52:15;;;;;;;15.48;6.65;;;34.40;21.10;;;;;;20717382;28;81294;-72
2021/07/22 17:02:16;;;;;;;10.82;7.25;;;34.20;20.90;;;;;;20713017;28;80827;-74
2021/07/22 17:12:18;;;;;;;12.55;7.20;;;33.90;20.70;;;;;;20717834;28;80649;-74
2021/07/22 17:22:21;;;;;;;12.52;5.03;;;33.90;20.50;;;;;;20713742;28;80922;-73
2021/07/22 17:32:22;;;;;;;10.55;5.38;;;33.70;20.20;;;;;;20735648;28;81124;-71
2021/07/22 17:42:24;;;;;;;12.55;8.02;;;33.60;20.00;;;;;;20735580;28;80863;-71
2021/07/22 17:52:26;;;;;;;13.93;7.78;;;33.50;20.70;;;;;;20744476;28;80513;-70
2021/07/22 18:02:28;;;;;;;11.40;5.82;;;33.60;20.50;;;;;;20753065;28;82475;-71
2021/07/22 18:12:29;;;;;;;15.63;6.55;;;33.40;21.30;;;;;;20722535;28;80886;-72
2021/07/22 18:22:32;;;;;;;10.57;5.70;;;33.30;21.50;;;;;;20720511;28;80447;-72
2021/07/22 18:32:55;;;;;;;18.05;10.93;;;33.10;21.60;;;;;;20737060;28;81114;-71
2021/07/22 18:42:57;;;;;;;20.08;15.10;;;33.00;22.10;;;;;;20733127;28;82618;-71
2021/07/22 18:52:59;;;;;;;18.08;10.20;;;32.90;22.60;;;;;;20733190;28;83790;-72
2021/07/22 19:03:01;;;;;;;12.60;8.63;;;32.70;21.40;;;;;;20734799;28;83409;-68
2021/07/22 19:13:03;;;;;;;11.02;5.28;;;32.60;22.80;;;;;;20772067;28;83143;-69
2021/07/22 19:23:06;;;;;;;10.57;7.30;;;32.50;23.50;;;;;;20745225;28;80152;-67
2021/07/22 19:33:08;;;;;;;11.35;7.07;;;32.30;25.30;;;;;;20741162;28;81080;-69
2021/07/22 19:43:10;;;;;;;12.88;7.40;;;32.10;23.90;;;;;;20759645;28;81124;-68
2021/07/22 19:53:17;;;;;;;143.48;63.40;;;31.90;23.80;;;;;;20743777;28;80579;-69
2021/07/22 20:03:18;;;;;;;30.67;19.67;;;31.50;31.40;;;;;;20718698;28;83299;-70
2021/07/22 20:13:20;;;;;;;22.42;11.90;;;30.90;27.10;;;;;;20734704;28;83106;-67
2021/07/22 20:23:22;;;;;;;22.05;13.40;;;31.20;25.70;;;;;;20738181;28;83270;-68
2021/07/22 20:33:24;;;;;;;17.98;10.05;;;31.20;25.90;;;;;;20739819;28;83974;-69
2021/07/22 20:43:25;;;;;;;23.42;13.70;;;31.30;25.80;;;;;;20728983;28;83484;-67
2021/07/22 20:53:27;;;;;;;16.25;9.73;;;31.20;25.30;;;;;;20729271;28;83852;-68
2021/07/22 21:03:29;;;;;;;16.05;8.98;;;31.20;25.00;;;;;;20738482;28;82062;-68
2021/07/22 21:13:32;;;;;;;14.57;7.80;;;31.10;25.30;;;;;;20765063;28;80661;-67
2021/07/22 21:23:34;;;;;;;16.88;12.10;;;31.00;25.60;;;;;;20735809;28;81586;-67
2021/07/22 21:33:35;;;;;;;15.85;8.63;;;30.70;26.20;;;;;;20744854;28;84308;-66
2021/07/22 21:43:41;;;;;;;20.52;9.18;;;30.30;26.90;;;;;;20740059;28;83386;-65
2021/07/22 21:53:42;;;;;;;15.82;9.13;;;30.00;28.00;;;;;;20758786;28;80720;-68
2021/07/22 22:03:44;;;;;;;17.88;9.57;;;29.70;29.20;;;;;;20747674;28;81278;-68
2021/07/22 22:13:46;;;;;;;17.95;9.55;;;29.50;30.70;;;;;;20734561;28;80753;-69
2021/07/22 22:23:48;;;;;;;18.63;10.65;;;29.20;32.40;;;;;;20747951;28;80827;-69
2021/07/22 22:33:51;;;;;;;18.33;9.63;;;28.80;33.50;;;;;;20738870;28;82884;-68
2021/07/22 22:43:52;;;;;;;16.85;11.05;;;28.40;34.00;;;;;;20719284;28;83317;-68
2021/07/22 22:53:54;;;;;;;17.98;10.40;;;28.20;34.10;;;;;;20697158;28;84162;-68
2021/07/22 23:03:57;;;;;;;14.68;9.57;;;28.00;33.90;;;;;;20761007;28;82919;-68
2021/07/22 23:13:59;;;;;;;19.63;10.30;;;27.80;34.30;;;;;;20722810;28;83685;-69
2021/07/22 23:24:04;;;;;;;19.20;10.35;;;27.60;34.20;;;;;;20696850;28;82957;-70
2021/07/22 23:34:06;;;;;;;14.80;9.60;;;27.50;33.90;;;;;;20695223;28;84636;-67
2021/07/22 23:44:08;;;;;;;20.83;10.40;;;27.30;34.70;;;;;;20702801;28;83451;-68
2021/07/22 23:54:10;;;;;;;21.38;11.10;;;27.00;35.60;;;;;;20697894;28;83715;-66
